Acton, Massachusetts
Current Conditions -  °F | °C
As of 6:56 PM on Friday 21 Nov 2014 (Local Time) from KBED Reporting Station
Clear Clear  
Wind Chill: 17°   Ceiling: Unl
Heat Index: 27°   Visibility: 10mi
Dew Point:   Wind: 10mph
Humidity: 39%   Direction: 280°W
Pressure: 30.34"   Gusts: NA
Location:  42.49°N, 71.43°W
Report Text: KBED 212356Z 28009KT 10SM CLR M03/M15 A3034 RMK AO2 SLP291 T10281150 10017 21028 51035
Loading
Personal Weather Stations






























Interactive Weather Map New forecast layout! Learn more

10-Day Weather Forecast

Advertisements
Track Severe Weather on mobile